KSDM/SDM METAR and TAF weather

Enter ICAO airport designator
Station Type Date Time Source
KSDM METAR 2021/08/01 17:53 UTC NOAA

KSDM 011753Z 30003KT 10SM CLR 29/14 A3005 RMK AO2 SLP169 T02890144 10289 20161 58005


Station Type Date Time Source
KSDM Decoded METAR 2021/08/01 17:53 UTC NOAA

San Diego, Brown Field Municipal Airport, CA, United States (KSDM) 32-34-31N 116-59-35W 159M
Aug 01, 2021 - 01:53 PM EDT / 2021.08.01 1753 UTC
Wind: from the WNW (300 degrees) at 3 MPH (3 KT):0
Visibility: 10 mile(s):0
Sky conditions: clear
Temperature: 84.0 F (28.9 C)
Dew Point: 57.9 F (14.4 C)
Relative Humidity: 41%
Pressure (altimeter): 30.05 in. Hg (1017 hPa)
Pressure tendency: 0.01 inches (0.5 hPa) lower than three hours ago
ob: KSDM 011753Z 30003KT 10SM CLR 29/14 A3005 RMK AO2 SLP169 T02890144 10289 20161 58005
cycle: 18

Station Type Date Time Source
KSDM TAF UTC NOAA

Error!

Example: see airport list